Time,TemperatureF,DewpointF,PressureIn,WindDirection,WindDirectionDegrees,WindSpeedMPH,WindSpeedGustMPH,Humidity,HourlyPrecipIn,Conditions,Clouds,dailyrainin,SoftwareType,DateUTC
2013-01-02 00:02:00,21.0,14.0,30.49,WNW,284,0.0,2.0,74,0.00,,,0.00,,2013-01-02 07:02:00,
2013-01-02 00:12:00,21.0,14.0,30.49,WNW,284,0.0,2.0,74,0.00,,,0.00,,2013-01-02 07:12:00,
2013-01-02 00:22:00,21.0,14.0,30.48,WNW,284,0.0,3.0,75,0.00,,,0.00,,2013-01-02 07:22:00,
2013-01-02 00:32:00,21.0,14.0,30.48,WNW,284,0.0,1.0,75,0.00,,,0.00,,2013-01-02 07:32:00,
2013-01-02 00:42:00,21.0,14.0,30.48,WNW,284,0.0,1.0,75,0.00,,,0.00,,2013-01-02 07:42:00,
2013-01-02 00:52:00,21.0,15.0,30.48,WNW,284,0.0,2.0,77,0.00,,,0.00,,2013-01-02 07:52:00,
2013-01-02 01:02:00,20.0,14.0,30.47,WNW,284,0.0,0.0,78,0.00,,,0.00,,2013-01-02 08:02:00,
2013-01-02 01:11:00,20.0,14.0,30.47,WNW,284,0.0,0.0,78,0.00,,,0.00,,2013-01-02 08:11:00,
2013-01-02 01:22:00,20.0,14.0,30.47,WNW,284,0.0,0.0,78,0.00,,,0.00,,2013-01-02 08:22:00,
2013-01-02 01:32:00,18.0,13.0,30.46,WNW,284,0.0,3.0,80,0.00,,,0.00,,2013-01-02 08:32:00,
2013-01-02 01:42:00,18.0,13.0,30.46,WNW,284,0.0,3.0,80,0.00,,,0.00,,2013-01-02 08:42:00,
2013-01-02 01:53:00,17.0,12.0,30.46,WNW,284,0.0,0.0,80,0.00,,,0.00,,2013-01-02 08:53:00,
2013-01-02 02:02:00,17.0,12.0,30.46,WNW,284,0.0,0.0,81,0.00,,,0.00,,2013-01-02 09:02:00,
2013-01-02 02:12:00,17.0,12.0,30.46,WNW,284,0.0,0.0,81,0.00,,,0.00,,2013-01-02 09:12:00,
2013-01-02 02:22:00,17.0,13.0,30.47,WNW,284,1.0,3.0,83,0.00,,,0.00,,2013-01-02 09:22:00,
2013-01-02 02:32:00,19.0,14.0,30.47,WNW,284,3.0,6.0,79,0.00,,,0.00,,2013-01-02 09:32:00,
2013-01-02 02:42:00,19.0,14.0,30.47,WNW,284,3.0,6.0,79,0.00,,,0.00,,2013-01-02 09:42:00,
2013-01-02 02:52:00,20.0,13.0,30.47,WNW,284,3.0,7.0,73,0.00,,,0.00,,2013-01-02 09:52:00,
2013-01-02 03:02:00,20.0,12.0,30.47,WNW,284,4.0,7.0,72,0.00,,,0.00,,2013-01-02 10:02:00,
2013-01-02 03:12:00,19.0,12.0,30.47,WNW,284,0.0,4.0,74,0.00,,,0.00,,2013-01-02 10:12:00,
2013-01-02 03:22:00,19.0,12.0,30.47,WNW,284,0.0,4.0,74,0.00,,,0.00,,2013-01-02 10:22:00,
2013-01-02 03:32:00,19.0,13.0,30.48,WNW,284,0.0,1.0,77,0.00,,,0.00,,2013-01-02 10:32:00,
2013-01-02 03:42:00,19.0,13.0,30.48,WNW,284,0.0,1.0,77,0.00,,,0.00,,2013-01-02 10:42:00,
2013-01-02 03:52:00,19.0,13.0,30.48,WNW,284,0.0,3.0,76,0.00,,,0.00,,2013-01-02 10:52:00,
2013-01-02 04:02:00,18.0,12.0,30.48,WNW,284,0.0,0.0,76,0.00,,,0.00,,2013-01-02 11:02:00,
2013-01-02 04:11:00,18.0,12.0,30.48,WNW,284,0.0,0.0,76,0.00,,,0.00,,2013-01-02 11:11:00,
2013-01-02 04:22:00,17.0,11.0,30.49,WNW,284,0.0,0.0,76,0.00,,,0.00,,2013-01-02 11:22:00,
2013-01-02 04:32:00,16.0,11.0,30.49,WNW,284,0.0,0.0,79,0.00,,,0.00,,2013-01-02 11:32:00,
2013-01-02 04:42:00,16.0,11.0,30.49,WNW,284,0.0,0.0,79,0.00,,,0.00,,2013-01-02 11:42:00,
2013-01-02 04:52:00,15.0,10.0,30.48,WNW,284,0.0,0.0,80,0.00,,,0.00,,2013-01-02 11:52:00,
2013-01-02 05:02:00,14.0,10.0,30.49,WNW,284,0.0,1.0,82,0.00,,,0.00,,2013-01-02 12:02:00,
2013-01-02 05:12:00,14.0,10.0,30.49,WNW,284,0.0,1.0,82,0.00,,,0.00,,2013-01-02 12:12:00,
2013-01-02 05:22:00,13.0,9.0,30.49,WNW,284,0.0,0.0,85,0.00,,,0.00,,2013-01-02 12:22:00,
2013-01-02 05:32:00,13.0,9.0,30.49,WNW,284,0.0,0.0,85,0.00,,,0.00,,2013-01-02 12:32:00,
2013-01-02 05:42:00,13.0,9.0,30.49,WNW,284,0.0,0.0,85,0.00,,,0.00,,2013-01-02 12:42:00,
2013-01-02 05:52:00,11.0,8.0,30.50,WNW,284,0.0,0.0,86,0.00,,,0.00,,2013-01-02 12:52:00,
2013-01-02 06:02:00,11.0,7.0,30.50,WNW,284,1.0,3.0,85,0.00,,,0.00,,2013-01-02 13:02:00,
2013-01-02 06:12:00,11.0,7.0,30.50,WNW,284,1.0,3.0,85,0.00,,,0.00,,2013-01-02 13:12:00,
2013-01-02 06:22:00,10.0,6.0,30.50,WNW,284,0.0,3.0,83,0.00,,,0.00,,2013-01-02 13:22:00,
2013-01-02 06:32:00,10.0,5.0,30.50,WNW,284,0.0,3.0,80,0.00,,,0.00,,2013-01-02 13:32:00,
2013-01-02 06:42:00,10.0,5.0,30.50,WNW,284,0.0,3.0,80,0.00,,,0.00,,2013-01-02 13:42:00,
2013-01-02 06:52:00,8.0,4.0,30.50,WNW,284,0.0,0.0,82,0.00,,,0.00,,2013-01-02 13:52:00,
2013-01-02 07:02:00,8.0,4.0,30.50,WNW,284,0.0,0.0,82,0.00,,,0.00,,2013-01-02 14:02:00,
2013-01-02 07:22:00,7.0,3.0,30.50,WNW,284,0.0,1.0,83,0.00,,,0.00,,2013-01-02 14:22:00,
2013-01-02 07:32:00,7.0,3.0,30.50,WNW,284,1.0,2.0,85,0.00,,,0.00,,2013-01-02 14:32:00,
2013-01-02 07:42:00,7.0,3.0,30.50,WNW,284,1.0,2.0,85,0.00,,,0.00,,2013-01-02 14:42:00,
2013-01-02 07:53:00,7.0,4.0,30.50,WNW,284,0.0,0.0,86,0.00,,,0.00,,2013-01-02 14:53:00,
2013-01-02 08:02:00,6.0,3.0,30.50,WNW,284,0.0,2.0,86,0.00,,,0.00,,2013-01-02 15:02:00,
2013-01-02 08:12:00,6.0,3.0,30.50,WNW,284,0.0,2.0,86,0.00,,,0.00,,2013-01-02 15:12:00,
2013-01-02 08:22:00,5.0,2.0,30.51,WNW,284,0.0,0.0,86,0.00,,,0.00,,2013-01-02 15:22:00,
2013-01-02 08:33:00,5.0,2.0,30.52,WNW,284,0.0,0.0,85,0.00,,,0.00,,2013-01-02 15:33:00,
2013-01-02 08:42:00,5.0,2.0,30.52,WNW,284,0.0,0.0,85,0.00,,,0.00,,2013-01-02 15:42:00,
2013-01-02 08:52:00,5.0,2.0,30.52,WNW,284,1.0,3.0,85,0.00,,,0.00,,2013-01-02 15:52:00,
2013-01-02 09:02:00,5.0,2.0,30.52,WNW,284,1.0,3.0,85,0.00,,,0.00,,2013-01-02 16:02:00,
2013-01-02 09:11:00,5.0,2.0,30.52,WNW,284,1.0,3.0,85,0.00,,,0.00,,2013-01-02 16:11:00,
2013-01-02 09:22:00,8.0,4.0,30.52,WNW,284,0.0,2.0,84,0.00,,,0.00,,2013-01-02 16:22:00,
2013-01-02 09:33:00,9.0,5.0,30.53,WNW,284,0.0,2.0,84,0.00,,,0.00,,2013-01-02 16:33:00,
2013-01-02 09:42:00,9.0,5.0,30.53,WNW,284,0.0,2.0,84,0.00,,,0.00,,2013-01-02 16:42:00,
2013-01-02 09:53:00,10.0,6.0,30.53,WNW,284,0.0,0.0,83,0.00,,,0.00,,2013-01-02 16:53:00,
2013-01-02 10:03:00,12.0,8.0,30.54,WNW,284,0.0,0.0,82,0.00,,,0.00,,2013-01-02 17:03:00,
2013-01-02 10:12:00,12.0,8.0,30.54,WNW,284,0.0,0.0,82,0.00,,,0.00,,2013-01-02 17:12:00,
2013-01-02 10:22:00,15.0,10.0,30.55,WNW,284,0.0,1.0,79,0.00,,,0.00,,2013-01-02 17:22:00,
2013-01-02 10:33:00,16.0,10.0,30.55,WNW,284,1.0,4.0,77,0.00,,,0.00,,2013-01-02 17:33:00,
2013-01-02 10:42:00,16.0,10.0,30.55,WNW,284,1.0,4.0,77,0.00,,,0.00,,2013-01-02 17:42:00,
2013-01-02 10:53:00,16.0,11.0,30.55,WNW,284,0.0,4.0,79,0.00,,,0.00,,2013-01-02 17:53:00,
2013-01-02 11:02:00,18.0,12.0,30.55,WNW,284,1.0,5.0,78,0.00,,,0.00,,2013-01-02 18:02:00,
2013-01-02 11:12:00,18.0,12.0,30.55,WNW,284,1.0,5.0,78,0.00,,,0.00,,2013-01-02 18:12:00,
2013-01-02 11:22:00,18.0,12.0,30.55,WNW,284,0.0,3.0,76,0.00,,,0.00,,2013-01-02 18:22:00,
2013-01-02 11:33:00,19.0,13.0,30.55,WNW,284,0.0,4.0,77,0.00,,,0.00,,2013-01-02 18:33:00,
2013-01-02 11:42:00,19.0,13.0,30.55,WNW,284,0.0,4.0,77,0.00,,,0.00,,2013-01-02 18:42:00,
2013-01-02 11:52:00,20.0,14.0,30.55,WNW,284,0.0,5.0,76,0.00,,,0.00,,2013-01-02 18:52:00,
2013-01-02 12:02:00,22.0,14.0,30.54,WNW,284,0.0,1.0,72,0.00,,,0.00,,2013-01-02 19:02:00,
2013-01-02 12:12:00,22.0,14.0,30.54,WNW,284,0.0,1.0,72,0.00,,,0.00,,2013-01-02 19:12:00,
2013-01-02 12:22:00,23.0,14.0,30.54,WNW,284,0.0,1.0,69,0.00,,,0.00,,2013-01-02 19:22:00,
2013-01-02 12:32:00,23.0,14.0,30.53,WNW,284,0.0,1.0,67,0.00,,,0.00,,2013-01-02 19:32:00,
2013-01-02 12:42:00,23.0,14.0,30.53,WNW,284,0.0,1.0,67,0.00,,,0.00,,2013-01-02 19:42:00,
2013-01-02 12:52:00,24.0,14.0,30.53,WNW,284,0.0,2.0,65,0.00,,,0.00,,2013-01-02 19:52:00,
2013-01-02 13:02:00,24.0,14.0,30.53,WNW,284,1.0,6.0,64,0.00,,,0.00,,2013-01-02 20:02:00,
2013-01-02 13:11:00,24.0,14.0,30.53,WNW,284,1.0,6.0,64,0.00,,,0.00,,2013-01-02 20:11:00,
2013-01-02 13:22:00,24.0,13.0,30.52,WNW,284,0.0,4.0,63,0.00,,,0.00,,2013-01-02 20:22:00,
2013-01-02 13:32:00,25.0,14.0,30.51,WNW,284,0.0,3.0,63,0.00,,,0.00,,2013-01-02 20:32:00,
2013-01-02 13:42:00,25.0,14.0,30.51,WNW,284,0.0,3.0,63,0.00,,,0.00,,2013-01-02 20:42:00,
2013-01-02 13:53:00,25.0,13.0,30.51,WNW,284,2.0,5.0,61,0.00,,,0.00,,2013-01-02 20:53:00,
2013-01-02 14:02:00,26.0,14.0,30.50,WNW,284,1.0,4.0,59,0.00,,,0.00,,2013-01-02 21:02:00,
2013-01-02 14:12:00,26.0,14.0,30.50,WNW,284,1.0,4.0,59,0.00,,,0.00,,2013-01-02 21:12:00,
2013-01-02 14:22:00,26.0,13.0,30.50,WNW,284,0.0,4.0,58,0.00,,,0.00,,2013-01-02 21:22:00,
2013-01-02 14:32:00,26.0,13.0,30.50,WNW,284,2.0,5.0,57,0.00,,,0.00,,2013-01-02 21:32:00,
2013-01-02 14:42:00,26.0,13.0,30.50,WNW,284,2.0,5.0,57,0.00,,,0.00,,2013-01-02 21:42:00,
2013-01-02 14:52:00,27.0,13.0,30.50,WNW,284,1.0,3.0,56,0.00,,,0.00,,2013-01-02 21:52:00,
2013-01-02 15:02:00,26.0,13.0,30.51,WNW,284,2.0,5.0,58,0.00,,,0.00,,2013-01-02 22:02:00,
2013-01-02 15:12:00,26.0,13.0,30.51,WNW,284,2.0,5.0,58,0.00,,,0.00,,2013-01-02 22:12:00,
2013-01-02 15:22:00,25.0,14.0,30.51,WNW,284,2.0,6.0,62,0.00,,,0.00,,2013-01-02 22:22:00,
2013-01-02 15:32:00,25.0,15.0,30.51,WNW,284,0.0,2.0,64,0.00,,,0.00,,2013-01-02 22:32:00,
2013-01-02 15:42:00,25.0,15.0,30.51,WNW,284,0.0,2.0,64,0.00,,,0.00,,2013-01-02 22:42:00,
2013-01-02 15:52:00,25.0,14.0,30.51,WNW,284,0.0,3.0,63,0.00,,,0.00,,2013-01-02 22:52:00,
2013-01-02 16:02:00,24.0,13.0,30.51,WNW,284,0.0,4.0,63,0.00,,,0.00,,2013-01-02 23:02:00,
2013-01-02 16:12:00,24.0,13.0,30.51,WNW,284,0.0,5.0,62,0.00,,,0.00,,2013-01-02 23:12:00,
2013-01-02 16:22:00,24.0,13.0,30.51,WNW,284,0.0,5.0,62,0.00,,,0.00,,2013-01-02 23:22:00,
2013-01-02 16:32:00,24.0,13.0,30.52,WNW,284,0.0,4.0,62,0.00,,,0.00,,2013-01-02 23:32:00,
2013-01-02 16:42:00,24.0,13.0,30.52,WNW,284,0.0,4.0,62,0.00,,,0.00,,2013-01-02 23:42:00,
2013-01-02 16:52:00,24.0,13.0,30.53,WNW,284,0.0,2.0,62,0.00,,,0.00,,2013-01-02 23:52:00,
2013-01-02 17:02:00,23.0,12.0,30.53,WNW,284,0.0,3.0,63,0.00,,,0.00,,2013-01-03 00:02:00,
2013-01-02 17:12:00,23.0,12.0,30.53,WNW,284,0.0,3.0,63,0.00,,,0.00,,2013-01-03 00:12:00,
2013-01-02 17:22:00,23.0,13.0,30.53,WNW,284,0.0,0.0,64,0.00,,,0.00,,2013-01-03 00:22:00,
2013-01-02 17:37:00,21.0,11.0,30.53,WNW,284,0.0,1.0,66,0.00,,,0.00,,2013-01-03 00:37:00,
2013-01-02 17:42:00,21.0,11.0,30.53,WNW,284,0.0,1.0,66,0.00,,,0.00,,2013-01-03 00:42:00,
2013-01-02 17:52:00,21.0,11.0,30.53,WNW,284,0.0,1.0,66,0.00,,,0.00,,2013-01-03 00:52:00,
2013-01-02 18:02:00,18.0,10.0,30.54,WNW,284,0.0,1.0,69,0.00,,,0.00,,2013-01-03 01:02:00,
2013-01-02 18:12:00,18.0,10.0,30.54,WNW,284,0.0,1.0,69,0.00,,,0.00,,2013-01-03 01:12:00,
2013-01-02 18:22:00,16.0,8.0,30.55,WNW,284,0.0,0.0,71,0.00,,,0.00,,2013-01-03 01:22:00,
2013-01-02 18:32:00,15.0,9.0,30.54,WNW,284,0.0,1.0,76,0.00,,,0.00,,2013-01-03 01:32:00,
2013-01-02 18:52:00,14.0,8.0,30.54,WNW,284,0.0,3.0,78,0.00,,,0.00,,2013-01-03 01:52:00,
2013-01-02 19:02:00,12.0,6.0,30.55,WNW,284,0.0,3.0,75,0.00,,,0.00,,2013-01-03 02:02:00,
2013-01-02 19:22:00,12.0,5.0,30.55,WNW,284,0.0,1.0,73,0.00,,,0.00,,2013-01-03 02:22:00,
2013-01-02 19:32:00,11.0,5.0,30.55,WNW,284,0.0,5.0,75,0.00,,,0.00,,2013-01-03 02:32:00,
2013-01-02 19:42:00,11.0,5.0,30.55,WNW,284,0.0,5.0,75,0.00,,,0.00,,2013-01-03 02:42:00,
2013-01-02 19:52:00,11.0,5.0,30.55,WNW,284,0.0,5.0,75,0.00,,,0.00,,2013-01-03 02:52:00,
2013-01-02 20:02:00,11.0,4.0,30.56,WNW,284,1.0,5.0,72,0.00,,,0.00,,2013-01-03 03:02:00,
2013-01-02 20:12:00,11.0,4.0,30.56,WNW,284,1.0,3.0,72,0.00,,,0.00,,2013-01-03 03:12:00,
2013-01-02 20:22:00,11.0,4.0,30.56,WNW,284,1.0,3.0,72,0.00,,,0.00,,2013-01-03 03:22:00,
2013-01-02 20:37:00,11.0,3.0,30.56,WNW,284,0.0,4.0,71,0.00,,,0.00,,2013-01-03 03:37:00,
2013-01-02 20:46:00,11.0,3.0,30.56,WNW,284,0.0,4.0,71,0.00,,,0.00,,2013-01-03 03:46:00,
2013-01-02 20:52:00,10.0,3.0,30.57,WNW,284,2.0,3.0,72,0.00,,,0.00,,2013-01-03 03:52:00,
2013-01-02 21:02:00,10.0,3.0,30.56,WNW,284,1.0,4.0,71,0.00,,,0.00,,2013-01-03 04:02:00,
2013-01-02 21:12:00,10.0,3.0,30.56,WNW,284,1.0,4.0,71,0.00,,,0.00,,2013-01-03 04:12:00,
2013-01-02 21:22:00,10.0,3.0,30.57,WNW,284,0.0,1.0,71,0.00,,,0.00,,2013-01-03 04:22:00,
2013-01-02 21:32:00,9.0,2.0,30.57,WNW,284,0.0,0.0,73,0.00,,,0.00,,2013-01-03 04:32:00,
2013-01-02 21:42:00,9.0,2.0,30.57,WNW,284,0.0,0.0,73,0.00,,,0.00,,2013-01-03 04:42:00,
2013-01-02 21:52:00,9.0,2.0,30.58,WNW,284,0.0,2.0,74,0.00,,,0.00,,2013-01-03 04:52:00,
2013-01-02 22:03:00,9.0,2.0,30.58,WNW,284,0.0,2.0,73,0.00,,,0.00,,2013-01-03 05:03:00,
2013-01-02 22:12:00,9.0,2.0,30.58,WNW,284,0.0,2.0,73,0.00,,,0.00,,2013-01-03 05:12:00,
2013-01-02 22:22:00,8.0,1.0,30.58,WNW,284,0.0,0.0,73,0.00,,,0.00,,2013-01-03 05:22:00,
2013-01-02 22:33:00,7.0,1.0,30.59,WNW,284,0.0,0.0,76,0.00,,,0.00,,2013-01-03 05:33:00,
2013-01-02 22:42:00,7.0,1.0,30.59,WNW,284,0.0,0.0,76,0.00,,,0.00,,2013-01-03 05:42:00,
2013-01-02 22:52:00,6.0,1.0,30.59,WNW,284,0.0,0.0,78,0.00,,,0.00,,2013-01-03 05:52:00,
2013-01-02 23:02:00,7.0,2.0,30.60,WNW,284,0.0,0.0,78,0.00,,,0.00,,2013-01-03 06:02:00,
2013-01-02 23:12:00,7.0,2.0,30.60,WNW,284,0.0,0.0,78,0.00,,,0.00,,2013-01-03 06:12:00,
2013-01-02 23:22:00,6.0,1.0,30.60,WNW,284,0.0,0.0,79,0.00,,,0.00,,2013-01-03 06:22:00,
2013-01-02 23:32:00,6.0,1.0,30.60,WNW,284,0.0,0.0,79,0.00,,,0.00,,2013-01-03 06:32:00,
2013-01-02 23:42:00,6.0,1.0,30.60,WNW,284,0.0,0.0,79,0.00,,,0.00,,2013-01-03 06:42:00,
2013-01-02 23:52:00,6.0,1.0,30.61,WNW,284,0.0,2.0,81,0.00,,,0.00,,2013-01-03 06:52:00,